Latest Weather Observations for Warburton

IDD60801

Issued at 11:02 am CST Saturday 28 February 2015 (issued every 30 minutes, with the page automatically refreshed every 10 minutes)

About weather observations | Map of weather stations | Latest weather observations for NT | Other Formats
Station Details ID: 013011 Name: WARBURTON AIRFIELD Lat: -26.13 Lon: 126.58 Height: 459.0 m
Data from the previous 72 hours. | See also: Recent months at Warburton
Date/Time
CST
Temp
°C
App
Temp
°C
Dew
Point
Rel
Hum
%
Delta-T
°C
Wind Press
QNH
hPa
Press
MSL
hPa
Rain
since 9 am
mm
Dir
 
Spd
km/h
Gust
km/h
Spd
kts
Gust
kts
28/11:00am 28.9 31.0 20.9 62 5.4 SE 11 17 6 9 1012.0 - 0.0
28/10:30am 28.2 30.6 21.5 67 4.6 E 11 17 6 9 1011.8 1008.4 0.8
28/10:00am 27.7 28.5 21.3 68 4.3 ESE 19 20 10 11 1011.6 - 0.6
28/09:30am 27.1 29.0 21.4 71 3.9 SSE 13 20 7 11 1011.9 - 0.6
28/09:00am 25.6 28.0 21.5 78 2.8 S 11 17 6 9 1012.1 - 0.6
28/08:30am 24.4 28.1 23.2 93 0.8 SSW 9 17 5 9 1012.3 - 0.6
28/08:00am 23.8 28.0 23.5 98 0.2 SSE 7 11 4 6 1011.7 - 0.6
28/07:30am 24.0 27.5 23.5 97 0.3 SE 11 13 6 7 1011.3 1007.9 0.6
28/07:00am 25.0 27.0 22.3 85 1.8 S 15 20 8 11 1010.8 - 0.0
28/06:30am 25.1 25.6 22.0 83 2.1 SSE 22 28 12 15 1009.6 - 0.0
28/06:00am 25.4 26.3 21.9 81 2.4 SSE 20 28 11 15 1009.5 - 0.0
28/05:30am 26.5 26.1 21.7 75 3.3 S 26 37 14 20 1009.3 - 0.0
28/05:23am 26.8 25.9 21.5 72 3.6 S 28 43 15 23 1009.2 - 0.0
28/05:00am 27.0 28.3 21.7 73 3.6 S 17 24 9 13 1008.7 - 0.0
28/04:30am 27.3 29.5 21.8 72 3.7 SSW 13 17 7 9 1008.6 1005.1 0.0
28/04:00am 27.4 30.6 21.7 71 3.9 S 7 11 4 6 1008.1 - 0.0
28/03:30am 27.7 29.3 21.5 69 4.2 SSW 15 22 8 12 1008.1 - 0.0
28/03:00am 28.4 29.7 20.9 64 5.1 SSW 15 20 8 11 1007.9 - 0.0
28/02:30am 28.7 29.8 20.4 60 5.6 WSW 15 19 8 10 1007.3 - 0.0
28/02:00am 28.4 32.7 21.2 65 4.9 CALM 0 0 0 0 1007.5 - 0.0
28/01:30am 29.4 32.0 20.5 58 6.0 WSW 7 11 4 6 1008.3 1004.8 0.0
28/01:00am 29.5 31.0 20.6 58 6.0 W 13 17 7 9 1008.8 - 0.0
28/12:30am 29.3 30.1 21.8 64 5.1 W 20 30 11 16 1009.0 - 0.0
28/12:00am 28.9 33.4 24.0 75 3.4 NW 7 7 4 4 1008.6 - 0.0
 
Date/Time
CST
Temp
°C
App
Temp
°C
Dew
Point
Rel
Hum
%
Delta-T
°C
Wind Press
QNH
hPa
Press
MSL
hPa
Rain
since 9 am
mm
Dir
 
Spd
km/h
Gust
km/h
Spd
kts
Gust
kts
27/11:30pm 29.4 33.6 23.1 69 4.4 WSW 6 9 3 5 1008.9 - 0.0
27/11:00pm 29.1 34.5 23.8 73 3.7 N 2 7 1 4 1008.6 - 0.0
27/10:30pm 29.7 34.9 22.9 67 4.7 CALM 0 0 0 0 1008.5 1005.0 0.0
27/10:00pm 30.1 35.0 22.3 63 5.4 CALM 0 0 0 0 1008.3 - 0.0
27/09:30pm 30.5 34.1 21.3 58 6.3 ESE 4 9 2 5 1008.0 - 0.0
27/09:00pm 30.5 33.0 21.0 57 6.4 SSE 9 13 5 7 1007.5 - 0.0
27/08:30pm 31.1 32.6 19.8 51 7.6 SSE 11 17 6 9 1007.5 - 0.0
27/08:00pm 31.4 32.5 20.4 52 7.4 SSE 15 20 8 11 1007.3 - 0.0
27/07:30pm 32.4 32.9 20.0 48 8.4 S 17 24 9 13 1006.6 1003.1 0.0
27/07:00pm 35.3 35.0 19.2 38 10.8 NW 19 33 10 18 1005.7 - 0.0
27/06:30pm 36.8 37.5 17.9 33 12.5 NW 11 20 6 11 1005.1 - 0.0
27/06:00pm 37.6 37.4 17.6 31 13.2 WNW 15 22 8 12 1005.1 - 0.0
27/05:30pm 38.0 37.0 17.9 30 13.4 W 20 30 11 16 1005.4 - 0.0
27/05:00pm 37.9 36.4 17.8 30 13.3 NW 22 33 12 18 1005.4 - 0.0
27/04:30pm 36.5 35.6 18.1 33 12.2 NNW 20 26 11 14 1005.8 1002.3 0.0
27/04:00pm 36.4 35.8 18.5 35 11.9 NNW 19 30 10 16 1006.2 - 0.0
27/03:30pm 36.5 34.8 18.1 33 12.2 NNW 24 35 13 19 1006.6 - 0.0
27/03:00pm 34.9 34.5 19.3 40 10.5 NNW 20 28 11 15 1007.1 - 0.0
27/02:30pm 35.4 32.3 17.6 35 11.7 NNW 30 41 16 22 1007.4 - 0.0
27/02:00pm 34.9 33.5 19.7 41 10.3 NW 26 37 14 20 1007.9 - 0.0
27/01:30pm 33.1 32.2 19.9 45 8.9 NW 24 35 13 19 1008.3 1004.8 0.0
27/01:00pm 31.7 31.6 21.5 54 7.0 NNW 24 32 13 17 1008.8 - 0.0
27/12:30pm 30.0 30.6 21.4 60 5.9 NNW 20 28 11 15 1009.4 - 0.0
27/12:00pm 29.7 30.2 21.1 60 5.8 NNW 20 28 11 15 1010.0 - 0.0
27/11:30am 29.3 30.2 22.0 64 5.0 N 20 26 11 14 1010.1 - 0.0
27/11:00am 28.8 30.2 22.5 68 4.3 NNW 19 26 10 14 1010.4 - 0.0
27/10:30am 28.5 30.2 23.4 74 3.6 N 20 24 11 13 1010.7 1007.2 13.4
27/10:00am 27.5 29.6 23.1 77 3.0 N 17 22 9 12 1010.7 - 13.2
27/09:30am 27.5 30.2 22.2 73 3.6 NNW 11 17 6 9 1011.0 - 13.2
27/09:00am 27.1 29.9 22.3 75 3.3 N 11 15 6 8 1011.2 - 13.2
27/08:30am 27.1 31.0 22.5 76 3.2 E 6 9 3 5 1011.1 - 13.2
27/08:00am 26.4 30.0 22.3 78 2.8 SW 7 11 4 6 1010.9 - 13.2
27/07:30am 25.7 28.2 22.4 82 2.3 W 13 19 7 10 1011.0 1007.5 13.2
27/07:00am 25.7 27.4 23.0 85 1.9 W 19 28 10 15 1010.9 - 13.2
27/06:30am 27.0 27.3 22.2 75 3.3 WNW 24 35 13 19 1010.8 - 13.2
27/06:00am 27.3 29.8 23.1 78 2.9 WNW 15 20 8 11 1010.3 - 13.2
27/05:59am 27.2 29.7 23.2 79 2.8 WNW 15 20 8 11 1010.3 - 13.2
27/05:30am 25.3 27.0 23.4 89 1.3 NNE 20 26 11 14 1008.3 - 13.0
27/05:00am 27.2 30.7 22.8 77 3.0 NNE 9 11 5 6 1007.8 - 12.4
27/04:30am 27.2 31.0 22.8 77 3.0 N 7 9 4 5 1007.4 1004.0 12.4
27/04:00am 27.2 31.1 22.6 76 3.2 N 6 7 3 4 1007.4 - 12.4
27/03:30am 27.7 29.8 21.0 67 4.5 NNE 11 13 6 7 1007.4 - 12.4
27/03:00am 27.5 30.3 21.5 70 4.1 NNE 9 11 5 6 1007.5 - 12.4
27/02:30am 26.6 31.8 23.5 83 2.2 E 2 6 1 3 1007.7 - 12.4
27/02:00am 26.3 29.3 22.6 80 2.5 NE 11 13 6 7 1008.1 - 12.4
27/01:30am 25.6 28.2 23.3 87 1.6 NE 15 19 8 10 1008.7 1005.2 12.4
27/01:00am 25.2 25.8 21.3 79 2.6 NNE 20 28 11 15 1008.8 - 12.2
27/12:49am 25.0 22.9 20.5 76 3.0 NNE 32 57 17 31 1008.9 - 11.8
27/12:46am 26.6 23.3 20.9 71 3.8 N 39 57 21 31 1009.0 - 11.2
27/12:45am 26.3 22.7 21.7 76 3.1 N 43 57 23 31 1009.1 - 11.0
27/12:30am 25.9 27.6 22.4 81 2.4 N 17 22 9 12 1009.5 - 10.4
27/12:00am 28.9 30.3 21.9 66 4.8 NW 17 32 9 17 1010.0 - 8.6
 
Date/Time
CST
Temp
°C
App
Temp
°C
Dew
Point
Rel
Hum
%
Delta-T
°C
Wind Press
QNH
hPa
Press
MSL
hPa
Rain
since 9 am
mm
Dir
 
Spd
km/h
Gust
km/h
Spd
kts
Gust
kts
26/11:30pm 28.6 31.8 21.6 66 4.8 ENE 7 11 4 6 1009.2 - 8.6
26/11:00pm 28.8 31.5 22.1 67 4.6 E 11 15 6 8 1009.0 - 8.6
26/10:30pm 29.4 31.3 21.4 62 5.5 ENE 13 24 7 13 1009.1 1005.6 8.6
26/10:00pm 29.2 32.2 22.7 68 4.5 E 11 17 6 9 1008.9 - 8.6
26/09:30pm 29.5 33.6 23.2 69 4.4 ESE 7 11 4 6 1008.5 - 8.6
26/09:00pm 29.6 33.9 23.3 69 4.4 SSE 6 9 3 5 1008.0 - 8.6
26/08:30pm 29.5 31.8 21.4 61 5.5 E 11 15 6 8 1007.1 - 8.6
26/08:00pm 28.0 30.5 22.5 72 3.8 E 13 22 7 12 1007.0 - 8.6
26/07:30pm 26.8 28.3 23.1 80 2.6 E 20 26 11 14 1007.9 1004.4 8.4
26/07:00pm 25.1 26.9 23.2 89 1.3 ESE 19 26 10 14 1008.7 - 7.8
26/06:34pm 27.3 26.6 21.1 69 4.2 NE 26 37 14 20 1008.6 - 2.2
26/06:30pm 32.3 29.5 18.1 42 9.3 E 30 46 16 25 1008.3 - 0.0
26/06:07pm 32.5 29.7 19.4 46 8.8 E 33 52 18 28 1006.9 - 0.0
26/06:00pm 33.9 29.3 18.0 39 10.5 E 39 52 21 28 1006.7 - 0.0
26/05:52pm 36.4 33.1 17.0 31 12.7 E 30 48 16 26 1006.4 - 0.0
26/05:46pm 37.9 34.9 16.8 29 13.8 ESE 28 39 15 21 1006.3 - 0.0
26/05:30pm 38.2 38.9 17.0 28 13.9 WNW 9 13 5 7 1006.0 - 0.0
26/05:00pm 39.3 39.3 18.0 29 14.2 SSW 15 22 8 12 1006.1 - 0.0
26/04:30pm 39.5 37.6 17.6 27 14.6 SW 24 26 13 14 1006.4 1002.9 0.0
26/04:00pm 38.5 39.1 17.8 29 13.8 W 11 20 6 11 1006.9 - 0.0
26/03:30pm 38.6 38.1 17.9 29 13.8 W 17 30 9 16 1007.2 - 0.0
26/03:00pm 37.9 38.7 17.3 29 13.6 NW 9 19 5 10 1008.1 - 0.0
26/02:30pm 38.0 39.3 18.4 31 13.1 W 9 15 5 8 1008.5 - 0.0
26/02:00pm 37.6 37.8 18.6 33 12.7 SW 15 22 8 12 1008.9 - 0.0
26/01:30pm 37.3 36.6 18.3 32 12.7 W 19 24 10 13 1009.4 1006.0 0.0
26/01:00pm 36.4 35.4 18.0 33 12.2 SW 20 32 11 17 1009.8 - 0.0
26/12:30pm 36.2 35.3 18.3 34 11.9 W 20 32 11 17 1010.3 - 0.0
26/12:00pm 36.1 34.1 17.3 33 12.3 W 24 35 13 19 1010.9 - 0.0
26/11:30am 35.7 32.7 15.9 30 12.7 NW 26 35 14 19 1011.4 - 0.0
26/11:00am 35.7 33.3 15.4 29 13.0 NW 22 30 12 16 1011.4 - 0.0
26/10:30am 35.3 32.4 14.0 28 13.3 NNW 22 28 12 15 1011.5 1008.1 0.0
26/10:00am 34.0 32.0 14.0 30 12.5 N 17 22 9 12 1011.6 - 0.0
26/09:30am 33.2 31.2 13.8 31 12.0 N 17 24 9 13 1011.5 - 0.0
26/09:00am 32.4 29.4 13.6 32 11.6 NNE 22 30 12 16 1011.3 - 0.0
26/08:30am 31.3 28.7 13.1 33 11.1 NE 19 28 10 15 1011.2 - 0.0
26/08:00am 30.0 28.2 14.5 38 9.6 ENE 17 22 9 12 1011.0 - 0.0
26/07:30am 29.4 28.9 14.8 41 9.1 ESE 11 15 6 8 1011.1 1007.6 0.0
26/07:00am 28.7 29.0 14.9 43 8.5 SSE 7 11 4 6 1010.7 - 0.0
26/06:30am 29.2 29.5 14.6 41 9.0 ESE 6 11 3 6 1010.5 - 0.0
26/06:00am 29.5 28.5 14.5 40 9.3 NE 13 19 7 10 1009.8 - 0.0
26/05:30am 29.3 30.2 15.1 42 8.8 E 4 13 2 7 1009.8 - 0.0
26/05:00am 29.1 30.3 16.0 45 8.3 SE 4 7 2 4 1009.6 - 0.0
26/04:30am 29.1 29.6 16.6 46 8.0 S 9 13 5 7 1009.7 1006.3 0.0
26/04:00am 29.8 30.2 16.2 43 8.6 ESE 9 15 5 8 1009.8 - 0.0
26/03:30am 29.8 30.2 16.2 43 8.6 E 9 15 5 8 1010.0 - 0.0
26/03:00am 29.9 30.3 16.3 43 8.6 E 9 15 5 8 1010.0 - 0.0
26/02:30am 30.1 29.8 16.5 44 8.7 E 13 17 7 9 1010.2 - 0.0
26/02:00am 30.4 29.7 16.4 43 8.9 E 15 20 8 11 1010.4 - 0.0
26/01:30am 30.6 29.6 16.6 43 9.0 E 17 26 9 14 1010.3 1006.8 0.0
26/01:00am 30.9 29.5 16.5 42 9.2 E 19 28 10 15 1010.6 - 0.0
26/12:30am 31.2 29.7 16.4 41 9.4 E 19 26 10 14 1010.8 - 0.0
26/12:00am 31.7 30.5 16.0 38 10.0 E 17 24 9 13 1010.9 - 0.0
 
Date/Time
CST
Temp
°C
App
Temp
°C
Dew
Point
Rel
Hum
%
Delta-T
°C
Wind Press
QNH
hPa
Press
MSL
hPa
Rain
since 9 am
mm
Dir
 
Spd
km/h
Gust
km/h
Spd
kts
Gust
kts
25/11:30pm 32.0 30.7 15.9 38 10.2 ESE 17 26 9 14 1011.1 - 0.0
25/11:00pm 32.1 30.3 16.0 38 10.2 ESE 20 28 11 15 1011.3 - 0.0
25/10:30pm 32.4 30.9 16.3 38 10.3 ESE 19 26 10 14 1011.3 1007.9 0.0
25/10:00pm 32.9 31.0 15.8 35 10.9 ESE 20 26 11 14 1011.0 - 0.0
25/09:30pm 33.5 31.5 15.5 34 11.4 ESE 20 28 11 15 1010.7 - 0.0
25/09:00pm 34.1 32.0 15.1 32 12.0 ESE 20 32 11 17 1010.3 - 0.0
25/08:30pm 34.8 32.9 15.2 31 12.4 ESE 19 26 10 14 1010.2 - 0.0
25/08:00pm 35.6 36.6 16.8 32 12.2 ENE 7 11 4 6 1009.6 - 0.0
25/07:30pm 36.4 36.9 16.5 30 12.9 NE 9 13 5 7 1009.4 1006.0 0.0
25/07:00pm 37.6 38.5 16.0 28 14.0 N 6 9 3 5 1009.3 - 0.0
25/06:30pm 37.8 38.7 16.1 27 14.1 N 6 11 3 6 1009.3 - 0.0
25/06:00pm 37.5 38.3 15.9 28 14.0 NE 6 13 3 7 1009.3 - 0.0
25/05:30pm 37.8 37.9 15.6 27 14.3 NNE 9 15 5 8 1009.3 - 0.0
25/05:00pm 37.4 36.3 15.2 26 14.2 N 15 28 8 15 1009.5 - 0.0
25/04:30pm 37.8 37.6 15.6 27 14.3 NNW 11 24 6 13 1009.6 1006.2 0.0
25/04:00pm 37.8 37.2 15.6 27 14.3 NE 13 22 7 12 1010.0 - 0.0
25/03:30pm 37.8 37.2 15.6 27 14.3 NW 13 20 7 11 1010.3 - 0.0
25/03:00pm 37.1 36.4 15.5 27 13.9 N 13 24 7 13 1010.8 - 0.0
25/02:30pm 36.9 36.0 14.8 26 14.0 WNW 13 24 7 13 1011.1 - 0.0
25/02:00pm 36.5 36.6 14.5 27 13.9 NNE 7 24 4 13 1011.6 - 0.0
25/01:30pm 36.4 35.0 14.4 27 13.9 NE 15 24 8 13 1012.1 1008.7 0.0
25/01:00pm 34.9 33.0 13.1 27 13.4 NNE 15 28 8 15 1012.8 - 0.0

Other Formats:

Comma delimited format used in spreadsheet applications
http://www.bom.gov.au/fwo/IDD60801/IDD60801.94457.axf

JavaScript Object Notation format (JSON) in row-major order
http://www.bom.gov.au/fwo/IDD60801/IDD60801.94457.json